Saline, MI (48176)

4:46 PM EST on February 01, 2015 (GMT -0500)
Ringel Farms | Change Station
CLOSE
Current Station
Personal Weather Station
Location: Saline, MI
Elevation: 869 ft
Nearby Weather Stations

Elev 869 ft 42.18 °N, 83.85 °W | Updated 6 minutes ago

Snow
Snow
20.6 °F
Feels Like 12 °F
N
7.0
Wind Variable Wind from ENE
Gusts 19.0 mph

Today
High -- | Low -- °F
--% Chance of Precip.
Yesterday
High -- | Low -- °F
Precip. -- in
7:48 AM 5:49 PM
Waxing Gibbous, 96% visible
Pressure 29.80 in
Visibility 0.2 miles
Clouds Few 700 ft
Overcast 1100 ft
Windchill 12 °F
Dew Point 19 °F
Humidity 94%
Rainfall 0.00 in
Snow Depth Not available.
UV 0 out of 12
Pollen .10 out of 12
Air Quality Not available.
Flu Activity Not available.
SPECI KARB 012138Z 06012G21KT 1/4SM SN FZFG FEW007 OVC011 M06/M08 A2980 RMK AO2 P0002 T10611083

More Conditions Fewer Conditions

Pressure 29.80 in
Visibility 0.2 miles
Clouds Few 700 ft
Overcast 1100 ft
Windchill 12 °F
Dew Point 19 °F
Humidity 94%
Rainfall 0.00 in
Snow Depth Not available.
UV 0 out of 12
Pollen .10 out of 12
Air Quality Not available.
Flu Activity Not available.
SPECI KARB 012138Z 06012G21KT 1/4SM SN FZFG FEW007 OVC011 M06/M08 A2980 RMK AO2 P0002 T10611083

More Conditions Fewer Conditions

10-Day Weather Forecast

Almanac

Astronomy

Feb. 01, 2015 Rise Set
Actual Time
Civil Twilight
Nautical Twilight
Astronomical Twilight
Moon
Length of Visible Light
Length of Day
Tomorrow will be .
, % of the Moon is Illuminated

Today's Extremes

State Highs State Lows

Community

WunderPhotos

Upload Photos

1,792,555 photos uploaded!

WunderBlogs® & News

Nearby

Air Quality

  Air Quality AQ Index Pollutant
Not available.

Snow Depth

Station Depth Elevation

Earthquake Activity

City Distance Mag. Time & Date
Minimum magnitude displayed is 2.5.

Coastal Water Temperatures

Place Temperature

Nearby Weather Stations